Mount Olive, Arkansas
Current Conditions -  °F | °C
As of 2:53 AM on Saturday 25 Oct 2014 (Local Time) from KLLQ Reporting Station
Clear Clear  
Wind Chill: 57°   Ceiling: Unl
Heat Index: 57°   Visibility: 10mi
Dew Point: 54°   Wind: 6mph
Humidity: 89%   Direction: 270°W
Pressure: 30.11"   Gusts: NA
Location:  33.37°N, 92.1129°W
Report Text: KLLQ 250753Z AUTO 27005KT 10SM CLR 14/12 A3011 RMK AO2 SLP195 T01390122
Loading
Personal Weather Stations






























Interactive Weather Map
Tropical Storm Tracking
New forecast layout! Learn more

10-Day Weather Forecast

Advertisements
Track Severe Weather on mobile